createdAt,value
2022-10-14T00:01:23.485Z,51.90
2022-10-14T00:04:25.400Z,51.90
2022-10-14T00:07:27.096Z,51.90
2022-10-14T00:10:28.866Z,51.90
2022-10-14T00:13:30.602Z,51.80
2022-10-14T00:16:35.384Z,51.90
2022-10-14T00:19:37.872Z,52.00
2022-10-14T00:22:39.562Z,51.90
2022-10-14T00:25:41.271Z,51.90
2022-10-14T00:28:43.033Z,51.90
2022-10-14T00:31:45.009Z,51.90
2022-10-14T00:34:46.693Z,51.90
2022-10-14T00:37:48.370Z,52.00
2022-10-14T00:40:50.390Z,51.90
2022-10-14T00:44:08.362Z,51.90
2022-10-14T00:47:10.574Z,51.90
2022-10-14T00:50:15.715Z,51.90
2022-10-14T00:53:18.239Z,51.90
2022-10-14T00:56:24.800Z,51.90
2022-10-14T00:59:26.828Z,51.90
2022-10-14T01:02:29.591Z,51.90
2022-10-14T01:05:36.655Z,52.10
2022-10-14T01:08:52.206Z,52.00
2022-10-14T01:12:35.639Z,52.00
2022-10-14T01:15:33.855Z,52.00
2022-10-14T01:18:54.236Z,52.00
2022-10-14T01:22:31.168Z,52.00
2022-10-14T01:25:40.447Z,52.00
2022-10-14T01:28:51.288Z,52.00
2022-10-14T01:32:02.886Z,52.00
2022-10-14T01:35:13.183Z,52.00
2022-10-14T01:38:29.619Z,52.00
2022-10-14T01:41:37.718Z,52.00
2022-10-14T01:44:44.110Z,52.10
2022-10-14T01:47:50.805Z,52.10
2022-10-14T01:50:57.055Z,52.00
2022-10-14T01:54:11.106Z,52.00
2022-10-14T01:57:18.998Z,52.10
2022-10-14T02:00:20.975Z,52.00
2022-10-14T02:03:22.764Z,52.00
2022-10-14T02:06:33.678Z,52.00
2022-10-14T02:09:49.905Z,52.00
2022-10-14T02:13:19.535Z,52.00
2022-10-14T02:16:30.340Z,52.00
2022-10-14T02:20:13.229Z,52.00
2022-10-14T02:23:20.278Z,51.90
2022-10-14T02:26:23.338Z,52.00
2022-10-14T02:29:27.615Z,52.00
2022-10-14T02:32:31.537Z,52.00
2022-10-14T02:35:34.730Z,52.00
2022-10-14T02:38:40.841Z,52.00
2022-10-14T02:41:43.720Z,52.00
2022-10-14T02:44:57.165Z,52.00
2022-10-14T02:47:58.852Z,52.00
2022-10-14T02:51:00.614Z,52.10
2022-10-14T02:54:02.412Z,52.00
2022-10-14T02:57:04.163Z,52.00
2022-10-14T03:00:06.619Z,52.10
2022-10-14T03:03:10.251Z,52.00
2022-10-14T03:06:13.691Z,52.00
2022-10-14T03:09:15.787Z,52.10
2022-10-14T03:12:20.068Z,52.00
2022-10-14T03:15:23.471Z,52.10
2022-10-14T03:18:25.564Z,52.10
2022-10-14T03:21:33.049Z,52.00
2022-10-14T03:24:35.026Z,52.00
2022-10-14T03:28:03.103Z,52.00
2022-10-14T03:31:14.539Z,52.10
2022-10-14T03:34:35.898Z,52.00
2022-10-14T03:37:41.432Z,52.00
2022-10-14T03:40:44.399Z,52.10
2022-10-14T03:43:48.052Z,52.00
2022-10-14T03:46:49.825Z,52.00
2022-10-14T03:49:51.499Z,52.00
2022-10-14T03:53:03.579Z,52.10
2022-10-14T03:56:10.839Z,52.10
2022-10-14T03:59:12.816Z,52.10
2022-10-14T04:02:21.174Z,52.00
2022-10-14T04:05:32.552Z,52.10
2022-10-14T04:08:36.436Z,52.00
2022-10-14T04:11:50.497Z,52.10
2022-10-14T04:15:31.085Z,52.10
2022-10-14T04:18:44.577Z,52.10
2022-10-14T04:21:48.822Z,52.10
2022-10-14T04:24:53.775Z,52.10
2022-10-14T04:27:55.773Z,52.10
2022-10-14T04:31:07.343Z,52.10
2022-10-14T04:34:21.533Z,52.30
2022-10-14T04:37:23.392Z,52.50
2022-10-14T04:40:37.133Z,52.50
2022-10-14T04:43:39.333Z,52.40
2022-10-14T04:46:54.438Z,52.40
2022-10-14T04:49:58.936Z,52.40
2022-10-14T04:53:02.601Z,52.50
2022-10-14T04:56:04.505Z,52.60
2022-10-14T04:59:08.617Z,52.60
2022-10-14T05:02:26.173Z,52.60
2022-10-14T05:05:33.976Z,52.70
2022-10-14T05:08:38.764Z,52.80
2022-10-14T05:11:43.213Z,52.80
2022-10-14T05:14:49.138Z,52.80
2022-10-14T05:18:02.172Z,52.90
2022-10-14T05:21:20.019Z,53.00
2022-10-14T05:24:31.419Z,53.00
2022-10-14T05:27:33.291Z,53.00
2022-10-14T05:30:37.388Z,53.00
2022-10-14T05:33:43.047Z,53.10
2022-10-14T05:36:45.350Z,53.10
2022-10-14T05:39:47.339Z,53.00
2022-10-14T05:42:53.344Z,53.10
2022-10-14T05:45:56.526Z,53.00
2022-10-14T05:49:05.810Z,53.00
2022-10-14T05:52:10.149Z,53.00
2022-10-14T05:55:12.136Z,53.00
2022-10-14T05:58:14.687Z,53.00
2022-10-14T06:01:19.237Z,53.10
2022-10-14T06:04:21.722Z,53.00
2022-10-14T06:07:23.474Z,53.10
2022-10-14T06:10:25.252Z,53.00
2022-10-14T06:13:26.974Z,53.70
2022-10-14T06:16:29.584Z,54.00
2022-10-14T06:19:32.423Z,54.10
2022-10-14T06:22:34.149Z,54.40
2022-10-14T06:25:36.661Z,54.50
2022-10-14T06:28:38.735Z,54.60
2022-10-14T06:31:40.636Z,54.40
2022-10-14T06:34:42.320Z,53.90
2022-10-14T06:37:45.932Z,54.40
2022-10-14T06:40:54.239Z,53.80
2022-10-14T06:43:55.921Z,53.70
2022-10-14T06:46:57.615Z,53.70
2022-10-14T06:49:59.464Z,53.50
2022-10-14T06:53:01.183Z,53.50
2022-10-14T06:56:05.881Z,53.40
2022-10-14T06:59:07.600Z,53.40
2022-10-14T07:02:10.467Z,53.40
2022-10-14T07:05:12.411Z,53.40
2022-10-14T07:08:15.569Z,53.40
2022-10-14T07:11:17.697Z,53.40
2022-10-14T07:14:19.555Z,53.60
2022-10-14T07:17:21.518Z,53.50
2022-10-14T07:20:23.402Z,53.50
2022-10-14T07:23:25.198Z,53.70
2022-10-14T07:26:26.907Z,53.60
2022-10-14T07:29:28.973Z,53.60
2022-10-14T07:32:30.790Z,53.80
2022-10-14T07:35:32.498Z,53.90
2022-10-14T07:38:34.431Z,53.80
2022-10-14T07:41:36.342Z,54.00
2022-10-14T07:44:39.755Z,54.20
2022-10-14T07:47:46.793Z,54.20
2022-10-14T07:50:51.436Z,54.20
2022-10-14T07:53:54.514Z,54.20
2022-10-14T07:56:57.873Z,56.00
2022-10-14T07:59:59.700Z,55.80
2022-10-14T08:03:01.490Z,54.70
2022-10-14T08:06:04.989Z,54.80
2022-10-14T08:09:08.593Z,54.60
2022-10-14T08:12:10.413Z,54.50
2022-10-14T08:15:12.188Z,54.60
2022-10-14T08:18:13.905Z,54.20
2022-10-14T08:21:17.224Z,54.50
2022-10-14T08:24:19.121Z,54.10
2022-10-14T08:27:21.395Z,54.10
2022-10-14T08:30:24.229Z,53.90
2022-10-14T08:33:26.014Z,54.10
2022-10-14T08:36:27.861Z,54.20
2022-10-14T08:39:29.663Z,54.20
2022-10-14T08:42:57.197Z,54.00
2022-10-14T08:46:30.339Z,54.10
2022-10-14T08:49:53.698Z,54.10
2022-10-14T08:53:01.340Z,54.10
2022-10-14T08:56:03.035Z,54.10
2022-10-14T08:59:13.440Z,54.10
2022-10-14T09:03:02.762Z,54.70
2022-10-14T09:06:10.476Z,54.10
2022-10-14T09:09:26.333Z,54.00
2022-10-14T09:12:31.139Z,54.00
2022-10-14T09:15:38.637Z,54.10
2022-10-14T09:18:41.942Z,54.00
2022-10-14T09:21:53.303Z,54.00
2022-10-14T09:24:55.418Z,53.90
2022-10-14T09:27:57.317Z,53.80
2022-10-14T09:31:02.414Z,53.80
2022-10-14T09:34:04.139Z,53.90
2022-10-14T09:37:30.045Z,53.80
2022-10-14T09:40:37.188Z,53.90
2022-10-14T09:43:41.972Z,53.90
2022-10-14T09:46:48.069Z,53.90
2022-10-14T09:49:50.914Z,53.90
2022-10-14T09:52:57.306Z,54.20
2022-10-14T09:56:02.710Z,53.90
2022-10-14T09:59:13.605Z,53.90
2022-10-14T10:02:42.159Z,53.90
2022-10-14T10:05:44.167Z,53.80
2022-10-14T10:09:01.280Z,53.80
2022-10-14T10:12:23.351Z,54.00
2022-10-14T10:15:25.600Z,54.20
2022-10-14T10:18:27.733Z,54.30
2022-10-14T10:21:30.502Z,54.20
2022-10-14T10:24:32.865Z,54.20
2022-10-14T10:27:39.946Z,54.30
2022-10-14T10:30:59.675Z,54.30
2022-10-14T10:34:13.061Z,54.50
2022-10-14T10:37:27.000Z,54.40
2022-10-14T10:40:41.315Z,54.50
2022-10-14T10:43:53.538Z,54.40
2022-10-14T10:47:08.679Z,54.40
2022-10-14T10:50:33.158Z,54.50
2022-10-14T10:53:46.506Z,54.50
2022-10-14T10:56:54.135Z,54.60
2022-10-14T11:00:03.962Z,54.80
2022-10-14T11:03:34.758Z,55.50
2022-10-14T11:07:08.647Z,55.60
2022-10-14T11:10:38.665Z,56.10
2022-10-14T11:13:59.118Z,56.20
2022-10-14T11:17:48.371Z,56.10
2022-10-14T11:21:16.054Z,55.70
2022-10-14T11:24:42.243Z,55.50
2022-10-14T11:27:49.048Z,55.80
2022-10-14T11:31:19.427Z,55.50
2022-10-14T11:34:28.352Z,55.40
2022-10-14T11:38:03.602Z,55.20
2022-10-14T11:41:34.337Z,55.20
2022-10-14T11:44:38.453Z,55.10
2022-10-14T11:47:41.858Z,55.00
2022-10-14T11:50:47.468Z,55.00
2022-10-14T11:54:14.778Z,55.00
2022-10-14T11:57:32.765Z,54.90
2022-10-14T12:00:36.233Z,54.90
2022-10-14T12:04:10.446Z,54.80
2022-10-14T12:07:22.654Z,55.00
2022-10-14T12:10:31.340Z,54.90
2022-10-14T12:13:48.798Z,54.90
2022-10-14T12:16:51.446Z,54.80
2022-10-14T12:19:53.580Z,54.80
2022-10-14T12:22:56.792Z,54.80
2022-10-14T12:26:33.928Z,55.00
2022-10-14T12:29:38.500Z,54.80
2022-10-14T12:33:01.478Z,54.80
2022-10-14T12:36:03.443Z,54.70
2022-10-14T12:39:17.140Z,54.80
2022-10-14T12:42:21.190Z,54.70
2022-10-14T12:45:26.388Z,54.80
2022-10-14T12:48:32.781Z,54.70
2022-10-14T12:51:34.570Z,54.70
2022-10-14T12:54:45.247Z,54.70
2022-10-14T12:57:59.425Z,54.70
2022-10-14T13:01:15.429Z,54.70
2022-10-14T13:04:20.261Z,54.60
2022-10-14T13:07:47.557Z,54.60
2022-10-14T13:10:55.202Z,54.60
2022-10-14T13:14:01.944Z,54.50
2022-10-14T13:17:24.570Z,54.50
2022-10-14T13:20:35.397Z,54.40
2022-10-14T13:23:44.714Z,54.40
2022-10-14T13:26:55.647Z,54.40
2022-10-14T13:30:20.705Z,54.40
2022-10-14T13:33:40.137Z,54.40
2022-10-14T13:37:27.965Z,54.40
2022-10-14T13:40:51.134Z,54.40
2022-10-14T13:43:58.563Z,54.50
2022-10-14T13:47:00.495Z,54.40
2022-10-14T13:50:04.685Z,54.40
2022-10-14T13:53:19.654Z,54.50
2022-10-14T13:56:31.364Z,54.40
2022-10-14T13:59:43.979Z,54.40
2022-10-14T14:02:55.953Z,54.40
2022-10-14T14:06:01.671Z,54.40
2022-10-14T14:09:05.768Z,54.30
2022-10-14T14:12:07.776Z,54.30
2022-10-14T14:15:28.812Z,54.40
2022-10-14T14:18:43.161Z,54.40
2022-10-14T14:22:31.835Z,54.30
2022-10-14T14:25:35.748Z,54.30
2022-10-14T14:28:47.637Z,54.30
2022-10-14T14:35:13.616Z,54.30
2022-10-14T14:38:26.996Z,54.30
2022-10-14T14:41:33.146Z,54.30
2022-10-14T14:44:35.609Z,54.80
2022-10-14T14:47:37.508Z,54.30
2022-10-14T14:50:43.070Z,54.30
2022-10-14T14:53:49.799Z,54.30
2022-10-14T14:57:07.070Z,54.80
2022-10-14T15:00:18.923Z,54.30
2022-10-14T15:03:24.948Z,54.30
2022-10-14T15:06:27.023Z,54.30
2022-10-14T15:09:58.014Z,54.30
2022-10-14T15:13:02.481Z,54.30
2022-10-14T15:16:08.068Z,54.20
2022-10-14T15:19:28.932Z,54.20
2022-10-14T15:22:33.714Z,54.30
2022-10-14T15:25:35.703Z,54.80
2022-10-14T15:28:37.410Z,54.30
2022-10-14T15:31:40.828Z,54.30
2022-10-14T15:34:42.598Z,54.40
2022-10-14T15:37:44.334Z,54.40
2022-10-14T15:40:47.875Z,54.20
2022-10-14T15:43:55.197Z,54.20
2022-10-14T15:47:15.807Z,54.10
2022-10-14T15:50:22.673Z,54.00
2022-10-14T15:53:27.431Z,54.10
2022-10-14T15:56:29.738Z,54.20
2022-10-14T15:59:37.214Z,54.20
2022-10-14T16:02:47.089Z,54.10
2022-10-14T16:05:52.303Z,54.10
2022-10-14T16:08:54.150Z,54.10
2022-10-14T16:12:00.102Z,54.20
2022-10-14T16:15:13.138Z,54.10
2022-10-14T16:18:25.793Z,54.20
2022-10-14T16:21:35.528Z,54.20
2022-10-14T16:24:37.226Z,54.10
2022-10-14T16:27:40.808Z,54.20
2022-10-14T16:30:49.303Z,54.10
2022-10-14T16:33:51.929Z,54.20
2022-10-14T16:36:57.350Z,54.20
2022-10-14T16:39:59.028Z,54.10
2022-10-14T16:43:04.836Z,54.10
2022-10-14T16:46:10.506Z,54.30
2022-10-14T16:49:15.362Z,54.20
2022-10-14T16:52:17.886Z,54.20
2022-10-14T16:55:21.419Z,54.30
2022-10-14T16:58:25.856Z,54.20
2022-10-14T17:01:28.504Z,54.20
2022-10-14T17:04:30.313Z,54.20
2022-10-14T17:07:35.801Z,54.20
2022-10-14T17:10:39.087Z,54.10
2022-10-14T17:13:40.770Z,54.10
2022-10-14T17:16:42.759Z,54.10
2022-10-14T17:19:44.652Z,54.00
2022-10-14T17:22:46.516Z,54.20
2022-10-14T17:25:48.513Z,54.00
2022-10-14T17:28:50.668Z,53.90
2022-10-14T17:31:52.425Z,53.90
2022-10-14T17:34:54.164Z,53.90
2022-10-14T17:37:55.881Z,54.00
2022-10-14T17:41:07.303Z,53.90
2022-10-14T17:44:10.460Z,53.90
2022-10-14T17:47:12.137Z,53.80
2022-10-14T17:50:14.315Z,53.90
2022-10-14T17:53:16.052Z,53.80
2022-10-14T17:56:17.827Z,53.90
2022-10-14T17:59:19.735Z,53.80
2022-10-14T18:02:22.067Z,53.90
2022-10-14T18:05:24.545Z,54.00
2022-10-14T18:08:26.262Z,54.00
2022-10-14T18:11:49.681Z,54.00
2022-10-14T18:14:52.194Z,54.00
2022-10-14T18:17:57.860Z,54.10
2022-10-14T18:21:02.807Z,54.10
2022-10-14T18:24:05.901Z,53.90
2022-10-14T18:27:07.789Z,54.50
2022-10-14T18:30:10.608Z,53.80
2022-10-14T18:33:12.376Z,54.00
2022-10-14T18:36:17.031Z,54.00
2022-10-14T18:39:20.249Z,54.00
2022-10-14T18:42:22.331Z,53.90
2022-10-14T18:45:24.229Z,53.80
2022-10-14T18:48:25.915Z,54.10
2022-10-14T18:51:30.274Z,54.20
2022-10-14T18:54:32.522Z,54.30
2022-10-14T18:57:34.225Z,54.30
2022-10-14T19:00:36.225Z,54.30
2022-10-14T19:03:39.916Z,54.30
2022-10-14T19:06:45.808Z,54.30
2022-10-14T19:09:47.992Z,54.50
2022-10-14T19:12:50.637Z,54.50
2022-10-14T19:16:12.892Z,54.30
2022-10-14T19:19:18.619Z,54.10
2022-10-14T19:22:20.655Z,54.20
2022-10-14T19:25:22.461Z,54.10
2022-10-14T19:28:24.236Z,54.10
2022-10-14T19:31:28.464Z,54.00
2022-10-14T19:34:30.210Z,54.00
2022-10-14T19:37:31.952Z,53.90
2022-10-14T19:40:33.618Z,54.20
2022-10-14T19:43:35.631Z,54.00
2022-10-14T19:46:37.933Z,54.00
2022-10-14T19:49:39.615Z,54.00
2022-10-14T19:52:41.366Z,53.90
2022-10-14T19:55:43.126Z,54.00
2022-10-14T19:58:45.168Z,53.90
2022-10-14T20:01:47.106Z,53.80
2022-10-14T20:04:48.889Z,53.80
2022-10-14T20:07:50.992Z,53.80
2022-10-14T20:10:52.717Z,54.40
2022-10-14T20:13:54.548Z,53.80
2022-10-14T20:16:56.259Z,53.70
2022-10-14T20:19:58.051Z,53.80
2022-10-14T20:22:59.810Z,53.80
2022-10-14T20:26:03.155Z,53.70
2022-10-14T20:29:04.901Z,53.70
2022-10-14T20:32:06.872Z,53.70
2022-10-14T20:35:14.127Z,53.70
2022-10-14T20:38:16.643Z,53.60
2022-10-14T20:41:23.776Z,53.60
2022-10-14T20:44:25.564Z,53.60
2022-10-14T20:47:27.340Z,53.60
2022-10-14T20:50:29.082Z,53.50
2022-10-14T20:53:31.074Z,54.10
2022-10-14T20:56:34.545Z,53.50
2022-10-14T20:59:38.444Z,53.50
2022-10-14T21:02:40.698Z,53.50
2022-10-14T21:05:42.432Z,53.60
2022-10-14T21:08:44.425Z,53.50
2022-10-14T21:11:46.534Z,53.50
2022-10-14T21:14:48.367Z,53.40
2022-10-14T21:17:50.193Z,53.50
2022-10-14T21:23:59.536Z,53.60
2022-10-14T21:27:01.361Z,53.60
2022-10-14T21:30:03.949Z,53.60
2022-10-14T21:33:05.664Z,53.50
2022-10-14T21:36:10.190Z,53.50
2022-10-14T21:39:17.788Z,53.60
2022-10-14T21:42:19.422Z,53.60
2022-10-14T21:45:21.351Z,54.10
2022-10-14T21:48:23.325Z,53.60
2022-10-14T21:51:28.043Z,53.60
2022-10-14T21:54:30.601Z,53.60
2022-10-14T21:57:32.317Z,53.60
2022-10-14T22:00:34.018Z,53.60
2022-10-14T22:03:37.266Z,53.50
2022-10-14T22:06:39.089Z,53.50
2022-10-14T22:09:40.795Z,53.60
2022-10-14T22:12:42.515Z,53.60
2022-10-14T22:15:44.206Z,53.60
2022-10-14T22:18:47.104Z,53.60
2022-10-14T22:21:49.734Z,53.60
2022-10-14T22:24:51.599Z,53.70
2022-10-14T22:27:53.268Z,53.60
2022-10-14T22:30:54.966Z,53.70
2022-10-14T22:33:57.798Z,53.60
2022-10-14T22:37:01.527Z,53.60
2022-10-14T22:40:03.655Z,53.60
2022-10-14T22:43:05.341Z,53.60
2022-10-14T22:46:10.118Z,53.60
2022-10-14T22:49:11.781Z,53.60
2022-10-14T22:52:13.493Z,53.60
2022-10-14T22:55:15.261Z,53.60
2022-10-14T22:58:16.987Z,53.60
2022-10-14T23:01:18.719Z,53.60
2022-10-14T23:04:20.439Z,53.60
2022-10-14T23:07:22.345Z,53.90
2022-10-14T23:10:24.061Z,53.50
2022-10-14T23:13:26.107Z,53.60
2022-10-14T23:16:28.575Z,53.60
2022-10-14T23:19:30.319Z,54.20
2022-10-14T23:22:34.406Z,53.50
2022-10-14T23:25:40.309Z,53.60
2022-10-14T23:28:42.309Z,53.40
2022-10-14T23:31:44.077Z,53.50
2022-10-14T23:34:45.854Z,53.50
2022-10-14T23:37:47.570Z,53.60
2022-10-14T23:40:49.257Z,53.50
2022-10-14T23:43:51.757Z,53.50
2022-10-14T23:46:53.480Z,53.60
2022-10-14T23:49:55.160Z,53.50
2022-10-14T23:52:56.879Z,53.50
2022-10-14T23:55:58.705Z,53.40
2022-10-14T23:59:00.371Z,53.50
